sensor_id;sensor_type;location;lat;lon;timestamp;temperature;humidity
19363;DHT22;9817;50.80926400;5.16316200;2024-03-07T00:00:09;7.90;99.90
19363;DHT22;9817;50.80926400;5.16316200;2024-03-07T00:02:45;7.80;99.90
19363;DHT22;9817;50.80926400;5.16316200;2024-03-07T00:05:13;7.70;99.90
19363;DHT22;9817;50.80926400;5.16316200;2024-03-07T00:07:39;7.70;99.90
19363;DHT22;9817;50.80926400;5.16316200;2024-03-07T00:10:05;7.70;99.90
19363;DHT22;9817;50.80926400;5.16316200;2024-03-07T00:12:39;7.80;99.90
19363;DHT22;9817;50.80926400;5.16316200;2024-03-07T00:15:12;7.70;99.90
19363;DHT22;9817;50.80926400;5.16316200;2024-03-07T00:17:38;7.70;99.90
19363;DHT22;9817;50.80926400;5.16316200;2024-03-07T00:20:06;7.60;99.90
19363;DHT22;9817;50.80926400;5.16316200;2024-03-07T00:22:35;7.60;99.90
19363;DHT22;9817;50.80926400;5.16316200;2024-03-07T00:25:01;7.70;99.90
19363;DHT22;9817;50.80926400;5.16316200;2024-03-07T00:27:30;7.60;99.90
19363;DHT22;9817;50.80926400;5.16316200;2024-03-07T00:29:55;7.60;99.90
19363;DHT22;9817;50.80926400;5.16316200;2024-03-07T00:32:23;7.60;99.90
19363;DHT22;9817;50.80926400;5.16316200;2024-03-07T00:34:49;7.60;99.90
19363;DHT22;9817;50.80926400;5.16316200;2024-03-07T00:37:18;7.60;99.90
19363;DHT22;9817;50.80926400;5.16316200;2024-03-07T00:39:43;7.70;99.90
19363;DHT22;9817;50.80926400;5.16316200;2024-03-07T00:42:09;7.60;99.90
19363;DHT22;9817;50.80926400;5.16316200;2024-03-07T00:44:35;7.40;99.90
19363;DHT22;9817;50.80926400;5.16316200;2024-03-07T00:47:01;7.40;99.90
19363;DHT22;9817;50.80926400;5.16316200;2024-03-07T00:49:28;7.50;99.90
19363;DHT22;9817;50.80926400;5.16316200;2024-03-07T00:51:54;7.50;99.90
19363;DHT22;9817;50.80926400;5.16316200;2024-03-07T00:54:20;7.40;99.90
19363;DHT22;9817;50.80926400;5.16316200;2024-03-07T00:56:45;7.40;99.90
19363;DHT22;9817;50.80926400;5.16316200;2024-03-07T00:59:15;7.30;99.90
19363;DHT22;9817;50.80926400;5.16316200;2024-03-07T01:01:41;7.30;99.90
19363;DHT22;9817;50.80926400;5.16316200;2024-03-07T01:04:07;7.20;99.90
19363;DHT22;9817;50.80926400;5.16316200;2024-03-07T01:06:33;7.20;99.90
19363;DHT22;9817;50.80926400;5.16316200;2024-03-07T01:08:59;7.20;99.90
19363;DHT22;9817;50.80926400;5.16316200;2024-03-07T01:11:24;7.10;99.90
19363;DHT22;9817;50.80926400;5.16316200;2024-03-07T01:13:50;7.10;99.90
19363;DHT22;9817;50.80926400;5.16316200;2024-03-07T01:16:16;7.00;99.90
19363;DHT22;9817;50.80926400;5.16316200;2024-03-07T01:18:41;6.90;99.90
19363;DHT22;9817;50.80926400;5.16316200;2024-03-07T01:21:07;6.60;99.90
19363;DHT22;9817;50.80926400;5.16316200;2024-03-07T01:23:34;6.60;99.90
19363;DHT22;9817;50.80926400;5.16316200;2024-03-07T01:26:00;6.70;99.90
19363;DHT22;9817;50.80926400;5.16316200;2024-03-07T01:28:26;6.70;99.90
19363;DHT22;9817;50.80926400;5.16316200;2024-03-07T01:30:55;6.70;99.90
19363;DHT22;9817;50.80926400;5.16316200;2024-03-07T01:33:21;6.70;99.90
19363;DHT22;9817;50.80926400;5.16316200;2024-03-07T01:35:46;6.70;99.90
19363;DHT22;9817;50.80926400;5.16316200;2024-03-07T01:38:13;6.70;99.90
19363;DHT22;9817;50.80926400;5.16316200;2024-03-07T01:40:40;6.60;99.90
19363;DHT22;9817;50.80926400;5.16316200;2024-03-07T01:43:07;6.60;99.90
19363;DHT22;9817;50.80926400;5.16316200;2024-03-07T01:45:32;6.50;99.90
19363;DHT22;9817;50.80926400;5.16316200;2024-03-07T01:47:58;6.50;99.90
19363;DHT22;9817;50.80926400;5.16316200;2024-03-07T01:50:24;6.40;99.90
19363;DHT22;9817;50.80926400;5.16316200;2024-03-07T01:52:50;6.40;99.90
19363;DHT22;9817;50.80926400;5.16316200;2024-03-07T01:55:17;6.30;99.90
19363;DHT22;9817;50.80926400;5.16316200;2024-03-07T01:57:44;6.30;99.90
19363;DHT22;9817;50.80926400;5.16316200;2024-03-07T02:00:11;6.20;99.90
19363;DHT22;9817;50.80926400;5.16316200;2024-03-07T02:02:37;6.20;99.90
19363;DHT22;9817;50.80926400;5.16316200;2024-03-07T02:05:03;6.20;99.90
19363;DHT22;9817;50.80926400;5.16316200;2024-03-07T02:07:29;6.20;99.90
19363;DHT22;9817;50.80926400;5.16316200;2024-03-07T02:10:02;6.20;99.90
19363;DHT22;9817;50.80926400;5.16316200;2024-03-07T02:12:29;6.10;99.90
19363;DHT22;9817;50.80926400;5.16316200;2024-03-07T02:14:56;6.20;99.90
19363;DHT22;9817;50.80926400;5.16316200;2024-03-07T02:17:26;6.20;99.90
19363;DHT22;9817;50.80926400;5.16316200;2024-03-07T02:19:52;6.10;99.90
19363;DHT22;9817;50.80926400;5.16316200;2024-03-07T02:22:18;6.10;99.90
19363;DHT22;9817;50.80926400;5.16316200;2024-03-07T02:24:45;6.00;99.90
19363;DHT22;9817;50.80926400;5.16316200;2024-03-07T02:27:11;5.90;99.90
19363;DHT22;9817;50.80926400;5.16316200;2024-03-07T02:29:37;5.90;99.90
19363;DHT22;9817;50.80926400;5.16316200;2024-03-07T02:32:03;5.80;99.90
19363;DHT22;9817;50.80926400;5.16316200;2024-03-07T02:34:29;5.80;99.90
19363;DHT22;9817;50.80926400;5.16316200;2024-03-07T02:36:55;5.80;99.90
19363;DHT22;9817;50.80926400;5.16316200;2024-03-07T02:39:21;5.80;99.90
19363;DHT22;9817;50.80926400;5.16316200;2024-03-07T02:41:47;5.80;99.90
19363;DHT22;9817;50.80926400;5.16316200;2024-03-07T02:44:15;5.90;99.90
19363;DHT22;9817;50.80926400;5.16316200;2024-03-07T02:46:41;5.90;99.90
19363;DHT22;9817;50.80926400;5.16316200;2024-03-07T02:49:06;5.90;99.90
19363;DHT22;9817;50.80926400;5.16316200;2024-03-07T02:51:32;5.90;99.90
19363;DHT22;9817;50.80926400;5.16316200;2024-03-07T02:53:58;5.80;99.90
19363;DHT22;9817;50.80926400;5.16316200;2024-03-07T02:56:24;5.80;99.90
19363;DHT22;9817;50.80926400;5.16316200;2024-03-07T02:58:50;5.80;99.90
19363;DHT22;9817;50.80926400;5.16316200;2024-03-07T03:01:17;5.80;99.90
19363;DHT22;9817;50.80926400;5.16316200;2024-03-07T03:03:43;5.80;99.90
19363;DHT22;9817;50.80926400;5.16316200;2024-03-07T03:06:09;5.70;99.90
19363;DHT22;9817;50.80926400;5.16316200;2024-03-07T03:08:35;5.70;99.90
19363;DHT22;9817;50.80926400;5.16316200;2024-03-07T03:11:01;5.70;99.90
19363;DHT22;9817;50.80926400;5.16316200;2024-03-07T03:13:27;5.60;99.90
19363;DHT22;9817;50.80926400;5.16316200;2024-03-07T03:15:56;5.60;99.90
19363;DHT22;9817;50.80926400;5.16316200;2024-03-07T03:18:22;5.60;99.90
19363;DHT22;9817;50.80926400;5.16316200;2024-03-07T03:20:49;5.60;99.90
19363;DHT22;9817;50.80926400;5.16316200;2024-03-07T03:23:14;5.60;99.90
19363;DHT22;9817;50.80926400;5.16316200;2024-03-07T03:25:41;5.60;99.90
19363;DHT22;9817;50.80926400;5.16316200;2024-03-07T03:28:07;5.60;99.90
19363;DHT22;9817;50.80926400;5.16316200;2024-03-07T03:30:38;5.50;99.90
19363;DHT22;9817;50.80926400;5.16316200;2024-03-07T03:33:05;5.50;99.90
19363;DHT22;9817;50.80926400;5.16316200;2024-03-07T03:35:32;5.70;99.90
19363;DHT22;9817;50.80926400;5.16316200;2024-03-07T03:37:57;5.70;99.90
19363;DHT22;9817;50.80926400;5.16316200;2024-03-07T03:40:23;5.60;99.90
19363;DHT22;9817;50.80926400;5.16316200;2024-03-07T03:42:49;5.60;99.90
19363;DHT22;9817;50.80926400;5.16316200;2024-03-07T03:45:14;5.70;99.90
19363;DHT22;9817;50.80926400;5.16316200;2024-03-07T03:47:42;5.60;99.90
19363;DHT22;9817;50.80926400;5.16316200;2024-03-07T03:50:10;5.60;99.90
19363;DHT22;9817;50.80926400;5.16316200;2024-03-07T03:52:36;5.60;99.90
19363;DHT22;9817;50.80926400;5.16316200;2024-03-07T03:55:03;5.70;99.90
19363;DHT22;9817;50.80926400;5.16316200;2024-03-07T03:57:32;5.70;99.90
19363;DHT22;9817;50.80926400;5.16316200;2024-03-07T03:59:59;5.70;99.90
19363;DHT22;9817;50.80926400;5.16316200;2024-03-07T04:02:25;5.60;99.90
19363;DHT22;9817;50.80926400;5.16316200;2024-03-07T04:04:53;5.60;99.90
19363;DHT22;9817;50.80926400;5.16316200;2024-03-07T04:07:19;5.50;99.90
19363;DHT22;9817;50.80926400;5.16316200;2024-03-07T04:09:45;5.60;99.90
19363;DHT22;9817;50.80926400;5.16316200;2024-03-07T04:12:11;5.60;99.90
19363;DHT22;9817;50.80926400;5.16316200;2024-03-07T04:14:41;5.50;99.90
19363;DHT22;9817;50.80926400;5.16316200;2024-03-07T04:17:10;5.50;99.90
19363;DHT22;9817;50.80926400;5.16316200;2024-03-07T04:19:39;5.40;99.90
19363;DHT22;9817;50.80926400;5.16316200;2024-03-07T04:22:05;5.30;99.90
19363;DHT22;9817;50.80926400;5.16316200;2024-03-07T04:24:31;5.30;99.90
19363;DHT22;9817;50.80926400;5.16316200;2024-03-07T04:27:00;5.30;99.90
19363;DHT22;9817;50.80926400;5.16316200;2024-03-07T04:29:38;5.20;99.90
19363;DHT22;9817;50.80926400;5.16316200;2024-03-07T04:32:04;5.30;99.90
19363;DHT22;9817;50.80926400;5.16316200;2024-03-07T04:34:30;5.30;99.90
19363;DHT22;9817;50.80926400;5.16316200;2024-03-07T04:36:57;5.20;99.90
19363;DHT22;9817;50.80926400;5.16316200;2024-03-07T04:39:24;5.10;99.90
19363;DHT22;9817;50.80926400;5.16316200;2024-03-07T04:41:56;5.10;99.90
19363;DHT22;9817;50.80926400;5.16316200;2024-03-07T04:44:21;5.10;99.90
19363;DHT22;9817;50.80926400;5.16316200;2024-03-07T04:46:48;5.20;99.90
19363;DHT22;9817;50.80926400;5.16316200;2024-03-07T04:49:15;5.20;99.90
19363;DHT22;9817;50.80926400;5.16316200;2024-03-07T04:51:40;5.20;99.90
19363;DHT22;9817;50.80926400;5.16316200;2024-03-07T04:54:06;5.20;99.90
19363;DHT22;9817;50.80926400;5.16316200;2024-03-07T04:56:32;5.30;99.90
19363;DHT22;9817;50.80926400;5.16316200;2024-03-07T04:58:57;5.30;99.90
19363;DHT22;9817;50.80926400;5.16316200;2024-03-07T05:01:23;5.30;99.90
19363;DHT22;9817;50.80926400;5.16316200;2024-03-07T05:03:50;5.30;99.90
19363;DHT22;9817;50.80926400;5.16316200;2024-03-07T05:06:18;5.30;99.90
19363;DHT22;9817;50.80926400;5.16316200;2024-03-07T05:08:44;5.40;99.90
19363;DHT22;9817;50.80926400;5.16316200;2024-03-07T05:11:09;5.40;99.90
19363;DHT22;9817;50.80926400;5.16316200;2024-03-07T05:13:35;5.50;99.90
19363;DHT22;9817;50.80926400;5.16316200;2024-03-07T05:16:02;5.40;99.90
19363;DHT22;9817;50.80926400;5.16316200;2024-03-07T05:18:28;5.40;99.90
19363;DHT22;9817;50.80926400;5.16316200;2024-03-07T05:20:53;5.40;99.90
19363;DHT22;9817;50.80926400;5.16316200;2024-03-07T05:23:20;5.40;99.90
19363;DHT22;9817;50.80926400;5.16316200;2024-03-07T05:25:45;5.30;99.90
19363;DHT22;9817;50.80926400;5.16316200;2024-03-07T05:28:11;5.30;99.90
19363;DHT22;9817;50.80926400;5.16316200;2024-03-07T05:30:37;5.20;99.90
19363;DHT22;9817;50.80926400;5.16316200;2024-03-07T05:33:03;5.20;99.90
19363;DHT22;9817;50.80926400;5.16316200;2024-03-07T05:35:29;5.30;99.90
19363;DHT22;9817;50.80926400;5.16316200;2024-03-07T05:37:55;5.20;99.90
19363;DHT22;9817;50.80926400;5.16316200;2024-03-07T05:40:22;5.20;99.90
19363;DHT22;9817;50.80926400;5.16316200;2024-03-07T05:42:48;5.30;99.90
19363;DHT22;9817;50.80926400;5.16316200;2024-03-07T05:45:14;5.30;99.90
19363;DHT22;9817;50.80926400;5.16316200;2024-03-07T05:47:43;5.20;99.90
19363;DHT22;9817;50.80926400;5.16316200;2024-03-07T05:50:09;5.30;99.90
19363;DHT22;9817;50.80926400;5.16316200;2024-03-07T05:52:35;5.20;99.90
19363;DHT22;9817;50.80926400;5.16316200;2024-03-07T05:55:00;5.30;99.90
19363;DHT22;9817;50.80926400;5.16316200;2024-03-07T05:57:26;5.20;99.90
19363;DHT22;9817;50.80926400;5.16316200;2024-03-07T05:59:51;5.20;99.90
19363;DHT22;9817;50.80926400;5.16316200;2024-03-07T06:02:17;5.20;99.90
19363;DHT22;9817;50.80926400;5.16316200;2024-03-07T06:04:43;5.10;99.90
19363;DHT22;9817;50.80926400;5.16316200;2024-03-07T06:07:09;5.10;99.90
19363;DHT22;9817;50.80926400;5.16316200;2024-03-07T06:09:36;5.10;99.90
19363;DHT22;9817;50.80926400;5.16316200;2024-03-07T06:12:02;5.10;99.90
19363;DHT22;9817;50.80926400;5.16316200;2024-03-07T06:14:29;5.10;99.90
19363;DHT22;9817;50.80926400;5.16316200;2024-03-07T06:16:55;5.10;99.90
19363;DHT22;9817;50.80926400;5.16316200;2024-03-07T06:19:23;5.20;99.90
19363;DHT22;9817;50.80926400;5.16316200;2024-03-07T06:21:49;5.30;99.90
19363;DHT22;9817;50.80926400;5.16316200;2024-03-07T06:24:15;5.30;99.90
19363;DHT22;9817;50.80926400;5.16316200;2024-03-07T06:26:43;5.30;99.90
19363;DHT22;9817;50.80926400;5.16316200;2024-03-07T06:29:29;5.40;99.90
19363;DHT22;9817;50.80926400;5.16316200;2024-03-07T06:31:55;5.30;99.90
19363;DHT22;9817;50.80926400;5.16316200;2024-03-07T06:34:21;5.20;99.90
19363;DHT22;9817;50.80926400;5.16316200;2024-03-07T06:36:47;5.20;99.90
19363;DHT22;9817;50.80926400;5.16316200;2024-03-07T06:39:12;5.20;99.90
19363;DHT22;9817;50.80926400;5.16316200;2024-03-07T06:41:39;5.10;99.90
19363;DHT22;9817;50.80926400;5.16316200;2024-03-07T06:44:05;5.10;99.90
19363;DHT22;9817;50.80926400;5.16316200;2024-03-07T06:46:31;5.30;99.90
19363;DHT22;9817;50.80926400;5.16316200;2024-03-07T06:48:57;5.40;99.90
19363;DHT22;9817;50.80926400;5.16316200;2024-03-07T06:51:23;5.60;99.90
19363;DHT22;9817;50.80926400;5.16316200;2024-03-07T06:53:50;5.70;99.90
19363;DHT22;9817;50.80926400;5.16316200;2024-03-07T06:56:16;5.70;99.90
19363;DHT22;9817;50.80926400;5.16316200;2024-03-07T06:58:42;5.70;99.90
19363;DHT22;9817;50.80926400;5.16316200;2024-03-07T07:01:09;5.90;99.90
19363;DHT22;9817;50.80926400;5.16316200;2024-03-07T07:03:39;6.00;99.90
19363;DHT22;9817;50.80926400;5.16316200;2024-03-07T07:06:05;6.10;99.90
19363;DHT22;9817;50.80926400;5.16316200;2024-03-07T07:08:33;6.00;99.90
19363;DHT22;9817;50.80926400;5.16316200;2024-03-07T07:10:59;6.10;99.90
19363;DHT22;9817;50.80926400;5.16316200;2024-03-07T07:13:25;5.90;99.90
19363;DHT22;9817;50.80926400;5.16316200;2024-03-07T07:15:51;6.00;99.90
19363;DHT22;9817;50.80926400;5.16316200;2024-03-07T07:18:16;5.90;99.90
19363;DHT22;9817;50.80926400;5.16316200;2024-03-07T07:20:42;6.00;99.90
19363;DHT22;9817;50.80926400;5.16316200;2024-03-07T07:23:08;6.00;99.90
19363;DHT22;9817;50.80926400;5.16316200;2024-03-07T07:25:34;6.10;99.90
19363;DHT22;9817;50.80926400;5.16316200;2024-03-07T07:28:00;6.10;99.90
19363;DHT22;9817;50.80926400;5.16316200;2024-03-07T07:30:25;6.20;99.90
19363;DHT22;9817;50.80926400;5.16316200;2024-03-07T07:32:54;6.40;99.90
19363;DHT22;9817;50.80926400;5.16316200;2024-03-07T07:35:20;6.50;99.90
19363;DHT22;9817;50.80926400;5.16316200;2024-03-07T07:37:50;6.50;99.90
19363;DHT22;9817;50.80926400;5.16316200;2024-03-07T07:40:22;6.70;99.90
19363;DHT22;9817;50.80926400;5.16316200;2024-03-07T07:42:52;6.70;99.90
19363;DHT22;9817;50.80926400;5.16316200;2024-03-07T07:45:19;6.70;99.90
19363;DHT22;9817;50.80926400;5.16316200;2024-03-07T07:47:47;6.60;99.90
19363;DHT22;9817;50.80926400;5.16316200;2024-03-07T07:50:16;6.80;99.90
19363;DHT22;9817;50.80926400;5.16316200;2024-03-07T07:52:48;7.20;99.90
19363;DHT22;9817;50.80926400;5.16316200;2024-03-07T07:55:19;7.50;99.90
19363;DHT22;9817;50.80926400;5.16316200;2024-03-07T07:57:46;7.70;99.90
19363;DHT22;9817;50.80926400;5.16316200;2024-03-07T08:00:14;8.00;99.90
19363;DHT22;9817;50.80926400;5.16316200;2024-03-07T08:02:52;8.20;99.90
19363;DHT22;9817;50.80926400;5.16316200;2024-03-07T08:05:20;8.30;99.90
19363;DHT22;9817;50.80926400;5.16316200;2024-03-07T08:07:52;8.70;99.90
19363;DHT22;9817;50.80926400;5.16316200;2024-03-07T08:10:28;9.50;99.90
19363;DHT22;9817;50.80926400;5.16316200;2024-03-07T08:12:54;10.50;99.90
19363;DHT22;9817;50.80926400;5.16316200;2024-03-07T08:15:20;10.90;99.90
19363;DHT22;9817;50.80926400;5.16316200;2024-03-07T08:17:47;11.00;99.90
19363;DHT22;9817;50.80926400;5.16316200;2024-03-07T08:20:17;11.30;99.90
19363;DHT22;9817;50.80926400;5.16316200;2024-03-07T08:22:44;11.00;99.90
19363;DHT22;9817;50.80926400;5.16316200;2024-03-07T08:25:11;11.20;99.90
19363;DHT22;9817;50.80926400;5.16316200;2024-03-07T08:27:38;11.60;99.90
19363;DHT22;9817;50.80926400;5.16316200;2024-03-07T08:30:05;11.40;99.90
19363;DHT22;9817;50.80926400;5.16316200;2024-03-07T08:32:42;11.50;99.90
19363;DHT22;9817;50.80926400;5.16316200;2024-03-07T08:35:08;11.40;99.90
19363;DHT22;9817;50.80926400;5.16316200;2024-03-07T08:37:48;11.70;99.90
19363;DHT22;9817;50.80926400;5.16316200;2024-03-07T08:40:20;11.50;99.90
19363;DHT22;9817;50.80926400;5.16316200;2024-03-07T08:42:48;11.50;99.90
19363;DHT22;9817;50.80926400;5.16316200;2024-03-07T08:45:14;11.80;99.90
19363;DHT22;9817;50.80926400;5.16316200;2024-03-07T08:47:44;11.90;99.90
19363;DHT22;9817;50.80926400;5.16316200;2024-03-07T08:50:10;12.00;99.90
19363;DHT22;9817;50.80926400;5.16316200;2024-03-07T08:52:36;12.40;99.90
19363;DHT22;9817;50.80926400;5.16316200;2024-03-07T08:55:15;12.90;99.90
19363;DHT22;9817;50.80926400;5.16316200;2024-03-07T08:57:43;13.40;99.90
19363;DHT22;9817;50.80926400;5.16316200;2024-03-07T09:00:12;12.90;99.90
19363;DHT22;9817;50.80926400;5.16316200;2024-03-07T09:02:48;12.80;99.90
19363;DHT22;9817;50.80926400;5.16316200;2024-03-07T09:05:15;13.40;99.90
19363;DHT22;9817;50.80926400;5.16316200;2024-03-07T09:07:41;14.10;99.90
19363;DHT22;9817;50.80926400;5.16316200;2024-03-07T09:10:07;14.00;99.90
19363;DHT22;9817;50.80926400;5.16316200;2024-03-07T09:12:33;14.40;99.90
19363;DHT22;9817;50.80926400;5.16316200;2024-03-07T09:14:58;13.30;99.90
19363;DHT22;9817;50.80926400;5.16316200;2024-03-07T09:17:24;13.20;99.90
19363;DHT22;9817;50.80926400;5.16316200;2024-03-07T09:19:49;13.30;99.90
19363;DHT22;9817;50.80926400;5.16316200;2024-03-07T09:22:15;13.10;99.90
19363;DHT22;9817;50.80926400;5.16316200;2024-03-07T09:24:41;13.20;99.90
19363;DHT22;9817;50.80926400;5.16316200;2024-03-07T09:27:07;13.80;99.90
19363;DHT22;9817;50.80926400;5.16316200;2024-03-07T09:29:33;14.40;99.90
19363;DHT22;9817;50.80926400;5.16316200;2024-03-07T09:31:59;14.90;99.90
19363;DHT22;9817;50.80926400;5.16316200;2024-03-07T09:34:25;15.70;99.90
19363;DHT22;9817;50.80926400;5.16316200;2024-03-07T09:36:51;16.30;99.90
19363;DHT22;9817;50.80926400;5.16316200;2024-03-07T09:39:17;16.00;99.90
19363;DHT22;9817;50.80926400;5.16316200;2024-03-07T09:41:44;15.90;99.90
19363;DHT22;9817;50.80926400;5.16316200;2024-03-07T09:44:17;15.30;99.90
19363;DHT22;9817;50.80926400;5.16316200;2024-03-07T09:46:48;15.60;99.90
19363;DHT22;9817;50.80926400;5.16316200;2024-03-07T09:49:14;15.90;99.90
19363;DHT22;9817;50.80926400;5.16316200;2024-03-07T09:51:40;15.20;99.90
19363;DHT22;9817;50.80926400;5.16316200;2024-03-07T09:54:08;15.00;99.90
19363;DHT22;9817;50.80926400;5.16316200;2024-03-07T09:56:35;15.00;99.90
19363;DHT22;9817;50.80926400;5.16316200;2024-03-07T09:59:04;14.90;99.90
19363;DHT22;9817;50.80926400;5.16316200;2024-03-07T10:01:33;14.60;99.90
19363;DHT22;9817;50.80926400;5.16316200;2024-03-07T10:04:01;15.20;99.90
19363;DHT22;9817;50.80926400;5.16316200;2024-03-07T10:06:36;15.30;99.90
19363;DHT22;9817;50.80926400;5.16316200;2024-03-07T10:09:01;15.30;99.90
19363;DHT22;9817;50.80926400;5.16316200;2024-03-07T10:11:29;15.50;99.90
19363;DHT22;9817;50.80926400;5.16316200;2024-03-07T10:13:55;15.10;99.90
19363;DHT22;9817;50.80926400;5.16316200;2024-03-07T10:16:20;14.90;99.90
19363;DHT22;9817;50.80926400;5.16316200;2024-03-07T10:18:46;14.30;99.90
19363;DHT22;9817;50.80926400;5.16316200;2024-03-07T10:21:18;14.30;99.90
19363;DHT22;9817;50.80926400;5.16316200;2024-03-07T10:23:44;14.10;99.90
19363;DHT22;9817;50.80926400;5.16316200;2024-03-07T10:26:10;14.60;99.90
19363;DHT22;9817;50.80926400;5.16316200;2024-03-07T10:28:37;14.80;99.90
19363;DHT22;9817;50.80926400;5.16316200;2024-03-07T10:31:04;14.80;99.90
19363;DHT22;9817;50.80926400;5.16316200;2024-03-07T10:33:34;14.50;99.90
19363;DHT22;9817;50.80926400;5.16316200;2024-03-07T10:36:00;14.30;99.90
19363;DHT22;9817;50.80926400;5.16316200;2024-03-07T10:38:27;14.10;99.90
19363;DHT22;9817;50.80926400;5.16316200;2024-03-07T10:40:54;13.90;99.90
19363;DHT22;9817;50.80926400;5.16316200;2024-03-07T10:43:21;13.80;99.90
19363;DHT22;9817;50.80926400;5.16316200;2024-03-07T10:45:48;13.70;99.90
19363;DHT22;9817;50.80926400;5.16316200;2024-03-07T10:48:20;13.60;99.90
19363;DHT22;9817;50.80926400;5.16316200;2024-03-07T10:50:48;13.90;99.90
19363;DHT22;9817;50.80926400;5.16316200;2024-03-07T10:53:40;13.70;99.90
19363;DHT22;9817;50.80926400;5.16316200;2024-03-07T10:56:33;13.50;99.90
19363;DHT22;9817;50.80926400;5.16316200;2024-03-07T11:04:22;12.50;99.90
19363;DHT22;9817;50.80926400;5.16316200;2024-03-07T11:06:49;12.90;99.90
19363;DHT22;9817;50.80926400;5.16316200;2024-03-07T11:09:15;12.80;99.90
19363;DHT22;9817;50.80926400;5.16316200;2024-03-07T11:11:49;13.10;99.90
19363;DHT22;9817;50.80926400;5.16316200;2024-03-07T11:14:15;13.10;99.90
19363;DHT22;9817;50.80926400;5.16316200;2024-03-07T11:16:42;13.10;99.90
19363;DHT22;9817;50.80926400;5.16316200;2024-03-07T11:19:28;12.90;99.90
19363;DHT22;9817;50.80926400;5.16316200;2024-03-07T11:21:55;12.80;99.90
19363;DHT22;9817;50.80926400;5.16316200;2024-03-07T11:24:29;12.60;99.90
19363;DHT22;9817;50.80926400;5.16316200;2024-03-07T11:26:58;12.70;99.90
19363;DHT22;9817;50.80926400;5.16316200;2024-03-07T11:29:40;12.70;99.90
19363;DHT22;9817;50.80926400;5.16316200;2024-03-07T11:32:12;12.60;99.90
19363;DHT22;9817;50.80926400;5.16316200;2024-03-07T11:34:41;12.30;99.90
19363;DHT22;9817;50.80926400;5.16316200;2024-03-07T11:37:08;12.00;99.90
19363;DHT22;9817;50.80926400;5.16316200;2024-03-07T11:39:47;11.90;99.90
19363;DHT22;9817;50.80926400;5.16316200;2024-03-07T11:44:47;12.40;99.90
19363;DHT22;9817;50.80926400;5.16316200;2024-03-07T11:47:13;12.80;99.90
19363;DHT22;9817;50.80926400;5.16316200;2024-03-07T11:49:39;13.00;99.90
19363;DHT22;9817;50.80926400;5.16316200;2024-03-07T11:52:05;13.00;99.90
19363;DHT22;9817;50.80926400;5.16316200;2024-03-07T11:54:40;13.00;99.90
19363;DHT22;9817;50.80926400;5.16316200;2024-03-07T11:57:18;12.80;99.90
19363;DHT22;9817;50.80926400;5.16316200;2024-03-07T11:59:59;12.80;99.90
19363;DHT22;9817;50.80926400;5.16316200;2024-03-07T12:02:33;12.30;99.90
19363;DHT22;9817;50.80926400;5.16316200;2024-03-07T12:04:59;12.30;99.90
19363;DHT22;9817;50.80926400;5.16316200;2024-03-07T12:07:26;12.40;99.90
19363;DHT22;9817;50.80926400;5.16316200;2024-03-07T12:09:52;12.20;99.90
19363;DHT22;9817;50.80926400;5.16316200;2024-03-07T12:12:22;12.10;99.90
19363;DHT22;9817;50.80926400;5.16316200;2024-03-07T12:14:49;12.20;99.90
19363;DHT22;9817;50.80926400;5.16316200;2024-03-07T12:17:16;12.40;99.90
19363;DHT22;9817;50.80926400;5.16316200;2024-03-07T12:19:44;12.20;99.90
19363;DHT22;9817;50.80926400;5.16316200;2024-03-07T12:22:12;12.00;99.90
19363;DHT22;9817;50.80926400;5.16316200;2024-03-07T12:24:39;11.90;99.90
19363;DHT22;9817;50.80926400;5.16316200;2024-03-07T12:27:09;12.00;99.90
19363;DHT22;9817;50.80926400;5.16316200;2024-03-07T12:29:37;12.00;99.90
19363;DHT22;9817;50.80926400;5.16316200;2024-03-07T12:32:08;12.20;99.90
19363;DHT22;9817;50.80926400;5.16316200;2024-03-07T12:34:36;12.30;99.90
19363;DHT22;9817;50.80926400;5.16316200;2024-03-07T12:37:07;12.40;99.90
19363;DHT22;9817;50.80926400;5.16316200;2024-03-07T12:39:34;12.30;99.90
19363;DHT22;9817;50.80926400;5.16316200;2024-03-07T12:42:18;12.40;99.90
19363;DHT22;9817;50.80926400;5.16316200;2024-03-07T12:44:45;12.50;99.90
19363;DHT22;9817;50.80926400;5.16316200;2024-03-07T12:47:20;12.40;99.90
19363;DHT22;9817;50.80926400;5.16316200;2024-03-07T12:49:46;12.20;99.90
19363;DHT22;9817;50.80926400;5.16316200;2024-03-07T12:52:12;12.10;99.90
19363;DHT22;9817;50.80926400;5.16316200;2024-03-07T12:54:43;12.30;99.90
19363;DHT22;9817;50.80926400;5.16316200;2024-03-07T12:57:12;12.10;99.90
19363;DHT22;9817;50.80926400;5.16316200;2024-03-07T12:59:38;12.00;99.90
19363;DHT22;9817;50.80926400;5.16316200;2024-03-07T13:02:08;12.30;99.90
19363;DHT22;9817;50.80926400;5.16316200;2024-03-07T13:04:34;12.10;99.90
19363;DHT22;9817;50.80926400;5.16316200;2024-03-07T13:07:00;11.90;99.90
19363;DHT22;9817;50.80926400;5.16316200;2024-03-07T13:09:30;11.70;99.90
19363;DHT22;9817;50.80926400;5.16316200;2024-03-07T13:11:59;11.70;99.90
19363;DHT22;9817;50.80926400;5.16316200;2024-03-07T13:14:30;12.00;99.90
19363;DHT22;9817;50.80926400;5.16316200;2024-03-07T13:16:59;11.60;99.90
19363;DHT22;9817;50.80926400;5.16316200;2024-03-07T13:19:29;11.60;99.90
19363;DHT22;9817;50.80926400;5.16316200;2024-03-07T13:21:55;11.80;99.90
19363;DHT22;9817;50.80926400;5.16316200;2024-03-07T13:24:26;11.90;99.90
19363;DHT22;9817;50.80926400;5.16316200;2024-03-07T13:26:52;12.00;99.90
19363;DHT22;9817;50.80926400;5.16316200;2024-03-07T13:29:19;12.10;99.90
19363;DHT22;9817;50.80926400;5.16316200;2024-03-07T13:31:51;12.00;99.90
19363;DHT22;9817;50.80926400;5.16316200;2024-03-07T13:34:17;11.90;99.90
19363;DHT22;9817;50.80926400;5.16316200;2024-03-07T13:36:43;11.80;99.90
19363;DHT22;9817;50.80926400;5.16316200;2024-03-07T13:39:11;11.90;99.90
19363;DHT22;9817;50.80926400;5.16316200;2024-03-07T13:41:46;12.00;99.90
19363;DHT22;9817;50.80926400;5.16316200;2024-03-07T13:44:14;12.00;99.90
19363;DHT22;9817;50.80926400;5.16316200;2024-03-07T13:46:40;11.70;99.90
19363;DHT22;9817;50.80926400;5.16316200;2024-03-07T13:49:06;11.80;99.90
19363;DHT22;9817;50.80926400;5.16316200;2024-03-07T13:51:43;12.00;99.90